sensor_id;sensor_type;location;lat;lon;timestamp;P1;durP1;ratioP1;P2;durP2;ratioP2
26864;SDS011;40618;51.166;10.322;2023-04-01T00:01:09;3.15;;;1.00;;
26864;SDS011;40618;51.166;10.322;2023-04-01T00:03:41;4.25;;;1.52;;
26864;SDS011;40618;51.166;10.322;2023-04-01T00:06:07;2.10;;;1.00;;
26864;SDS011;40618;51.166;10.322;2023-04-01T00:08:34;4.00;;;1.05;;
26864;SDS011;40618;51.166;10.322;2023-04-01T00:11:00;3.10;;;0.88;;
26864;SDS011;40618;51.166;10.322;2023-04-01T00:13:26;4.93;;;0.90;;
26864;SDS011;40618;51.166;10.322;2023-04-01T00:15:52;3.22;;;1.20;;
26864;SDS011;40618;51.166;10.322;2023-04-01T00:18:19;2.92;;;1.00;;
26864;SDS011;40618;51.166;10.322;2023-04-01T00:20:45;3.20;;;1.30;;
26864;SDS011;40618;51.166;10.322;2023-04-01T00:23:13;3.95;;;0.85;;
26864;SDS011;40618;51.166;10.322;2023-04-01T00:25:40;2.47;;;0.70;;
26864;SDS011;40618;51.166;10.322;2023-04-01T00:28:06;3.03;;;1.00;;
26864;SDS011;40618;51.166;10.322;2023-04-01T00:30:32;1.92;;;1.00;;
26864;SDS011;40618;51.166;10.322;2023-04-01T00:32:57;1.60;;;0.82;;
26864;SDS011;40618;51.166;10.322;2023-04-01T00:35:23;1.90;;;0.90;;
26864;SDS011;40618;51.166;10.322;2023-04-01T00:37:49;2.80;;;1.02;;
26864;SDS011;40618;51.166;10.322;2023-04-01T00:40:29;7.03;;;1.00;;
26864;SDS011;40618;51.166;10.322;2023-04-01T00:43:03;4.57;;;0.80;;
26864;SDS011;40618;51.166;10.322;2023-04-01T00:45:36;2.40;;;0.93;;
26864;SDS011;40618;51.166;10.322;2023-04-01T00:48:15;2.38;;;0.90;;
26864;SDS011;40618;51.166;10.322;2023-04-01T00:50:48;2.35;;;0.82;;
26864;SDS011;40618;51.166;10.322;2023-04-01T00:53:56;2.03;;;0.90;;
26864;SDS011;40618;51.166;10.322;2023-04-01T00:56:34;3.42;;;0.95;;
26864;SDS011;40618;51.166;10.322;2023-04-01T00:59:06;2.83;;;0.90;;
26864;SDS011;40618;51.166;10.322;2023-04-01T01:01:38;2.72;;;1.48;;
26864;SDS011;40618;51.166;10.322;2023-04-01T01:04:04;2.40;;;1.25;;
26864;SDS011;40618;51.166;10.322;2023-04-01T01:06:45;5.60;;;0.98;;
26864;SDS011;40618;51.166;10.322;2023-04-01T01:14:45;5.13;;;0.77;;
26864;SDS011;40618;51.166;10.322;2023-04-01T01:37:57;3.47;;;0.80;;
26864;SDS011;40618;51.166;10.322;2023-04-01T01:40:29;2.15;;;0.80;;
26864;SDS011;40618;51.166;10.322;2023-04-01T01:43:00;3.65;;;0.70;;
26864;SDS011;40618;51.166;10.322;2023-04-01T01:45:33;2.53;;;0.90;;
26864;SDS011;40618;51.166;10.322;2023-04-01T01:48:02;2.90;;;1.02;;
26864;SDS011;40618;51.166;10.322;2023-04-01T01:50:32;4.32;;;1.00;;
26864;SDS011;40618;51.166;10.322;2023-04-01T01:53:07;3.45;;;0.90;;
26864;SDS011;40618;51.166;10.322;2023-04-01T01:55:37;2.50;;;0.93;;
26864;SDS011;40618;51.166;10.322;2023-04-01T01:58:20;3.17;;;0.90;;
26864;SDS011;40618;51.166;10.322;2023-04-01T02:00:55;2.97;;;0.90;;
26864;SDS011;40618;51.166;10.322;2023-04-01T02:03:27;3.30;;;0.80;;
26864;SDS011;40618;51.166;10.322;2023-04-01T02:05:58;4.13;;;0.93;;
26864;SDS011;40618;51.166;10.322;2023-04-01T02:08:34;2.83;;;0.93;;
26864;SDS011;40618;51.166;10.322;2023-04-01T02:11:06;1.27;;;0.80;;
26864;SDS011;40618;51.166;10.322;2023-04-01T02:16:29;7.60;;;1.45;;
26864;SDS011;40618;51.166;10.322;2023-04-01T02:19:01;3.72;;;1.13;;
26864;SDS011;40618;51.166;10.322;2023-04-01T02:21:32;3.75;;;1.25;;
26864;SDS011;40618;51.166;10.322;2023-04-01T02:24:00;2.10;;;0.98;;
26864;SDS011;40618;51.166;10.322;2023-04-01T02:26:31;3.80;;;0.90;;
26864;SDS011;40618;51.166;10.322;2023-04-01T02:28:57;5.05;;;1.00;;
26864;SDS011;40618;51.166;10.322;2023-04-01T02:31:26;2.35;;;0.82;;
26864;SDS011;40618;51.166;10.322;2023-04-01T02:33:53;2.75;;;0.93;;
26864;SDS011;40618;51.166;10.322;2023-04-01T02:36:20;5.43;;;1.73;;
26864;SDS011;40618;51.166;10.322;2023-04-01T02:38:46;4.35;;;1.00;;
26864;SDS011;40618;51.166;10.322;2023-04-01T02:41:14;1.95;;;0.90;;
26864;SDS011;40618;51.166;10.322;2023-04-01T02:43:40;2.47;;;1.20;;
26864;SDS011;40618;51.166;10.322;2023-04-01T02:46:05;1.55;;;0.80;;
26864;SDS011;40618;51.166;10.322;2023-04-01T02:48:31;4.20;;;1.00;;
26864;SDS011;40618;51.166;10.322;2023-04-01T02:50:57;6.18;;;1.23;;
26864;SDS011;40618;51.166;10.322;2023-04-01T02:53:22;3.28;;;0.68;;
26864;SDS011;40618;51.166;10.322;2023-04-01T02:55:48;5.25;;;1.10;;
26864;SDS011;40618;51.166;10.322;2023-04-01T02:58:16;7.30;;;1.10;;
26864;SDS011;40618;51.166;10.322;2023-04-01T03:00:42;4.70;;;1.10;;
26864;SDS011;40618;51.166;10.322;2023-04-01T03:03:08;2.65;;;0.90;;
26864;SDS011;40618;51.166;10.322;2023-04-01T03:05:39;2.66;;;0.94;;
26864;SDS011;40618;51.166;10.322;2023-04-01T03:08:05;4.47;;;1.30;;
26864;SDS011;40618;51.166;10.322;2023-04-01T03:10:31;4.50;;;1.00;;
26864;SDS011;40618;51.166;10.322;2023-04-01T03:12:57;3.38;;;1.02;;
26864;SDS011;40618;51.166;10.322;2023-04-01T03:15:22;5.75;;;1.40;;
26864;SDS011;40618;51.166;10.322;2023-04-01T03:17:48;2.05;;;0.82;;
26864;SDS011;40618;51.166;10.322;2023-04-01T03:20:13;2.75;;;0.80;;
26864;SDS011;40618;51.166;10.322;2023-04-01T03:22:40;4.00;;;1.00;;
26864;SDS011;40618;51.166;10.322;2023-04-01T03:25:06;2.58;;;0.70;;
26864;SDS011;40618;51.166;10.322;2023-04-01T03:27:33;3.90;;;0.73;;
26864;SDS011;40618;51.166;10.322;2023-04-01T03:30:03;2.00;;;0.60;;
26864;SDS011;40618;51.166;10.322;2023-04-01T03:32:30;3.28;;;0.95;;
26864;SDS011;40618;51.166;10.322;2023-04-01T03:34:56;2.13;;;0.90;;
26864;SDS011;40618;51.166;10.322;2023-04-01T03:37:22;4.38;;;0.95;;
26864;SDS011;40618;51.166;10.322;2023-04-01T03:39:49;4.05;;;1.08;;
26864;SDS011;40618;51.166;10.322;2023-04-01T03:42:15;1.52;;;0.65;;
26864;SDS011;40618;51.166;10.322;2023-04-01T03:44:41;5.65;;;1.23;;
26864;SDS011;40618;51.166;10.322;2023-04-01T03:47:07;4.93;;;1.73;;
26864;SDS011;40618;51.166;10.322;2023-04-01T03:49:34;1.90;;;1.02;;
26864;SDS011;40618;51.166;10.322;2023-04-01T03:52:00;3.22;;;1.48;;
26864;SDS011;40618;51.166;10.322;2023-04-01T03:54:26;2.38;;;1.50;;
26864;SDS011;40618;51.166;10.322;2023-04-01T03:56:51;3.35;;;1.10;;
26864;SDS011;40618;51.166;10.322;2023-04-01T03:59:17;6.63;;;1.30;;
26864;SDS011;40618;51.166;10.322;2023-04-01T04:01:43;1.75;;;0.70;;
26864;SDS011;40618;51.166;10.322;2023-04-01T04:04:10;3.60;;;0.82;;
26864;SDS011;40618;51.166;10.322;2023-04-01T04:06:38;3.85;;;0.85;;
26864;SDS011;40618;51.166;10.322;2023-04-01T04:09:03;3.70;;;1.27;;
26864;SDS011;40618;51.166;10.322;2023-04-01T04:11:30;3.33;;;0.85;;
26864;SDS011;40618;51.166;10.322;2023-04-01T04:13:57;2.05;;;0.82;;
26864;SDS011;40618;51.166;10.322;2023-04-01T04:16:23;2.50;;;0.75;;
26864;SDS011;40618;51.166;10.322;2023-04-01T04:18:49;1.58;;;0.70;;
26864;SDS011;40618;51.166;10.322;2023-04-01T04:21:16;1.38;;;0.70;;
26864;SDS011;40618;51.166;10.322;2023-04-01T04:23:41;4.97;;;0.90;;
26864;SDS011;40618;51.166;10.322;2023-04-01T04:26:09;3.25;;;0.75;;
26864;SDS011;40618;51.166;10.322;2023-04-01T04:28:39;5.97;;;1.30;;
26864;SDS011;40618;51.166;10.322;2023-04-01T04:31:05;4.63;;;1.30;;
26864;SDS011;40618;51.166;10.322;2023-04-01T04:33:32;2.00;;;0.80;;
26864;SDS011;40618;51.166;10.322;2023-04-01T04:35:59;4.57;;;1.00;;
26864;SDS011;40618;51.166;10.322;2023-04-01T04:38:26;3.75;;;0.90;;
26864;SDS011;40618;51.166;10.322;2023-04-01T04:40:52;1.98;;;0.75;;
26864;SDS011;40618;51.166;10.322;2023-04-01T04:43:18;2.67;;;0.80;;
26864;SDS011;40618;51.166;10.322;2023-04-01T04:45:45;2.80;;;1.00;;
26864;SDS011;40618;51.166;10.322;2023-04-01T04:48:14;2.40;;;0.77;;
26864;SDS011;40618;51.166;10.322;2023-04-01T04:50:43;2.70;;;0.80;;
26864;SDS011;40618;51.166;10.322;2023-04-01T04:53:18;3.33;;;0.80;;
26864;SDS011;40618;51.166;10.322;2023-04-01T04:55:45;2.25;;;1.00;;
26864;SDS011;40618;51.166;10.322;2023-04-01T04:58:13;1.15;;;0.52;;
26864;SDS011;40618;51.166;10.322;2023-04-01T05:00:39;0.77;;;0.45;;
26864;SDS011;40618;51.166;10.322;2023-04-01T05:03:05;3.78;;;0.80;;
26864;SDS011;40618;51.166;10.322;2023-04-01T05:05:30;4.13;;;0.80;;
26864;SDS011;40618;51.166;10.322;2023-04-01T05:07:56;1.73;;;0.90;;
26864;SDS011;40618;51.166;10.322;2023-04-01T05:10:22;2.75;;;0.98;;
26864;SDS011;40618;51.166;10.322;2023-04-01T05:12:47;2.05;;;0.90;;
26864;SDS011;40618;51.166;10.322;2023-04-01T05:15:13;2.17;;;1.02;;
26864;SDS011;40618;51.166;10.322;2023-04-01T05:17:40;3.55;;;0.80;;
26864;SDS011;40618;51.166;10.322;2023-04-01T05:20:05;3.00;;;1.25;;
26864;SDS011;40618;51.166;10.322;2023-04-01T05:22:32;1.42;;;0.60;;
26864;SDS011;40618;51.166;10.322;2023-04-01T05:24:58;3.67;;;0.95;;
26864;SDS011;40618;51.166;10.322;2023-04-01T05:27:23;4.05;;;0.70;;
26864;SDS011;40618;51.166;10.322;2023-04-01T05:29:49;2.25;;;0.80;;
26864;SDS011;40618;51.166;10.322;2023-04-01T05:32:15;3.17;;;0.80;;
26864;SDS011;40618;51.166;10.322;2023-04-01T05:34:41;2.25;;;1.00;;
26864;SDS011;40618;51.166;10.322;2023-04-01T05:37:06;1.65;;;0.77;;
26864;SDS011;40618;51.166;10.322;2023-04-01T05:39:39;2.00;;;0.98;;
26864;SDS011;40618;51.166;10.322;2023-04-01T05:42:05;2.80;;;0.70;;
26864;SDS011;40618;51.166;10.322;2023-04-01T05:44:32;1.40;;;0.80;;
26864;SDS011;40618;51.166;10.322;2023-04-01T05:46:58;2.10;;;0.70;;
26864;SDS011;40618;51.166;10.322;2023-04-01T05:49:23;0.85;;;0.40;;
26864;SDS011;40618;51.166;10.322;2023-04-01T05:51:49;3.13;;;0.93;;
26864;SDS011;40618;51.166;10.322;2023-04-01T05:54:16;3.15;;;1.08;;
26864;SDS011;40618;51.166;10.322;2023-04-01T05:56:41;4.30;;;0.90;;
26864;SDS011;40618;51.166;10.322;2023-04-01T05:59:09;1.02;;;0.68;;
26864;SDS011;40618;51.166;10.322;2023-04-01T06:01:36;0.95;;;0.57;;
26864;SDS011;40618;51.166;10.322;2023-04-01T06:04:02;1.63;;;0.75;;
26864;SDS011;40618;51.166;10.322;2023-04-01T06:06:28;2.83;;;0.80;;
26864;SDS011;40618;51.166;10.322;2023-04-01T06:09:07;4.00;;;0.77;;
26864;SDS011;40618;51.166;10.322;2023-04-01T06:26:23;2.53;;;0.90;;
26864;SDS011;40618;51.166;10.322;2023-04-01T06:29:08;1.35;;;0.70;;
26864;SDS011;40618;51.166;10.322;2023-04-01T06:58:42;1.40;;;0.52;;
26864;SDS011;40618;51.166;10.322;2023-04-01T07:01:32;2.30;;;0.90;;
26864;SDS011;40618;51.166;10.322;2023-04-01T07:07:04;1.02;;;0.50;;
26864;SDS011;40618;51.166;10.322;2023-04-01T07:09:43;4.00;;;0.55;;
26864;SDS011;40618;51.166;10.322;2023-04-01T07:15:09;1.70;;;0.73;;
26864;SDS011;40618;51.166;10.322;2023-04-01T07:17:44;2.72;;;0.60;;
26864;SDS011;40618;51.166;10.322;2023-04-01T07:20:25;2.78;;;0.90;;
26864;SDS011;40618;51.166;10.322;2023-04-01T07:22:59;4.37;;;1.00;;
26864;SDS011;40618;51.166;10.322;2023-04-01T07:25:33;1.67;;;0.50;;
26864;SDS011;40618;51.166;10.322;2023-04-01T07:28:11;1.45;;;0.60;;
26864;SDS011;40618;51.166;10.322;2023-04-01T07:33:56;1.70;;;0.43;;
26864;SDS011;40618;51.166;10.322;2023-04-01T07:40:00;4.30;;;1.02;;
26864;SDS011;40618;51.166;10.322;2023-04-01T07:45:47;1.35;;;0.45;;
26864;SDS011;40618;51.166;10.322;2023-04-01T07:51:53;1.60;;;0.55;;
26864;SDS011;40618;51.166;10.322;2023-04-01T07:57:20;4.03;;;0.75;;
26864;SDS011;40618;51.166;10.322;2023-04-01T08:00:20;3.95;;;0.60;;
26864;SDS011;40618;51.166;10.322;2023-04-01T08:06:06;0.77;;;0.45;;
26864;SDS011;40618;51.166;10.322;2023-04-01T08:15:36;3.15;;;0.95;;
26864;SDS011;40618;51.166;10.322;2023-04-01T08:21:33;2.10;;;0.70;;
26864;SDS011;40618;51.166;10.322;2023-04-01T08:27:09;1.65;;;0.40;;
26864;SDS011;40618;51.166;10.322;2023-04-01T08:30:21;4.35;;;0.60;;
26864;SDS011;40618;51.166;10.322;2023-04-01T08:38:43;1.85;;;0.75;;
26864;SDS011;40618;51.166;10.322;2023-04-01T08:41:44;1.55;;;0.40;;
26864;SDS011;40618;51.166;10.322;2023-04-01T08:47:19;1.48;;;0.50;;
26864;SDS011;40618;51.166;10.322;2023-04-01T08:50:18;2.60;;;0.50;;
26864;SDS011;40618;51.166;10.322;2023-04-01T08:58:35;2.38;;;0.75;;
26864;SDS011;40618;51.166;10.322;2023-04-01T09:04:31;2.72;;;1.30;;
26864;SDS011;40618;51.166;10.322;2023-04-01T09:07:34;2.90;;;1.80;;
26864;SDS011;40618;51.166;10.322;2023-04-01T09:13:32;2.08;;;1.25;;
26864;SDS011;40618;51.166;10.322;2023-04-01T09:19:47;2.42;;;1.13;;
26864;SDS011;40618;51.166;10.322;2023-04-01T09:26:00;4.40;;;2.83;;
26864;SDS011;40618;51.166;10.322;2023-04-01T09:38:19;9.68;;;6.28;;
26864;SDS011;40618;51.166;10.322;2023-04-01T09:41:06;16.95;;;10.10;;
26864;SDS011;40618;51.166;10.322;2023-04-01T09:46:50;16.75;;;8.82;;
26864;SDS011;40618;51.166;10.322;2023-04-01T09:52:26;28.20;;;13.77;;
26864;SDS011;40618;51.166;10.322;2023-04-01T09:58:37;10.30;;;5.00;;
26864;SDS011;40618;51.166;10.322;2023-04-01T10:13:35;14.70;;;5.70;;
26864;SDS011;40618;51.166;10.322;2023-04-01T10:37:09;1.75;;;0.95;;
26864;SDS011;40618;51.166;10.322;2023-04-01T11:24:35;1.63;;;0.80;;
26864;SDS011;40618;51.166;10.322;2023-04-01T11:30:41;4.28;;;2.30;;
26864;SDS011;40618;51.166;10.322;2023-04-01T11:36:17;3.45;;;1.40;;
26864;SDS011;40618;51.166;10.322;2023-04-01T11:42:11;8.30;;;3.00;;
26864;SDS011;40618;51.166;10.322;2023-04-01T11:51:12;4.35;;;1.50;;
26864;SDS011;40618;51.166;10.322;2023-04-01T12:00:02;3.28;;;0.95;;
26864;SDS011;40618;51.166;10.322;2023-04-01T12:02:50;1.42;;;0.70;;
26864;SDS011;40618;51.166;10.322;2023-04-01T12:05:54;0.20;;;0.17;;
26864;SDS011;40618;51.166;10.322;2023-04-01T12:08:31;4.88;;;1.83;;
26864;SDS011;40618;51.166;10.322;2023-04-01T12:11:41;3.33;;;1.08;;
26864;SDS011;40618;51.166;10.322;2023-04-01T12:18:32;5.53;;;2.70;;
26864;SDS011;40618;51.166;10.322;2023-04-01T12:26:19;2.05;;;1.08;;
26864;SDS011;40618;51.166;10.322;2023-04-01T12:41:32;4.05;;;1.77;;
26864;SDS011;40618;51.166;10.322;2023-04-01T12:51:04;3.58;;;2.03;;
26864;SDS011;40618;51.166;10.322;2023-04-01T12:54:05;3.42;;;1.65;;
26864;SDS011;40618;51.166;10.322;2023-04-01T12:57:05;4.00;;;1.70;;
26864;SDS011;40618;51.166;10.322;2023-04-01T13:44:16;0.43;;;0.38;;
26864;SDS011;40618;51.166;10.322;2023-04-01T13:58:38;2.50;;;1.10;;
26864;SDS011;40618;51.166;10.322;2023-04-01T14:01:35;1.52;;;0.80;;
26864;SDS011;40618;51.166;10.322;2023-04-01T14:06:57;1.65;;;1.15;;
26864;SDS011;40618;51.166;10.322;2023-04-01T14:09:45;3.92;;;1.27;;
26864;SDS011;40618;51.166;10.322;2023-04-01T14:12:38;0.93;;;0.40;;
26864;SDS011;40618;51.166;10.322;2023-04-01T14:21:01;0.50;;;0.30;;
26864;SDS011;40618;51.166;10.322;2023-04-01T14:24:18;1.60;;;0.90;;
26864;SDS011;40618;51.166;10.322;2023-04-01T14:39:15;0.32;;;0.20;;
26864;SDS011;40618;51.166;10.322;2023-04-01T14:45:02;1.92;;;0.90;;
26864;SDS011;40618;51.166;10.322;2023-04-01T14:48:17;0.90;;;0.68;;
26864;SDS011;40618;51.166;10.322;2023-04-01T14:50:50;0.82;;;0.70;;
26864;SDS011;40618;51.166;10.322;2023-04-01T14:53:33;0.70;;;0.60;;
26864;SDS011;40618;51.166;10.322;2023-04-01T14:56:07;1.00;;;0.70;;
26864;SDS011;40618;51.166;10.322;2023-04-01T14:58:46;0.52;;;0.50;;
26864;SDS011;40618;51.166;10.322;2023-04-01T15:04:41;0.22;;;0.20;;
26864;SDS011;40618;51.166;10.322;2023-04-01T15:21:18;1.02;;;0.70;;
26864;SDS011;40618;51.166;10.322;2023-04-01T15:26:53;0.95;;;0.93;;
26864;SDS011;40618;51.166;10.322;2023-04-01T15:35:55;3.78;;;2.20;;
26864;SDS011;40618;51.166;10.322;2023-04-01T15:38:30;1.13;;;0.80;;
26864;SDS011;40618;51.166;10.322;2023-04-01T15:41:15;0.68;;;0.68;;
26864;SDS011;40618;51.166;10.322;2023-04-01T15:43:48;0.55;;;0.47;;
26864;SDS011;40618;51.166;10.322;2023-04-01T16:00:31;5.35;;;2.80;;
26864;SDS011;40618;51.166;10.322;2023-04-01T16:03:19;4.78;;;2.88;;
26864;SDS011;40618;51.166;10.322;2023-04-01T16:12:15;0.90;;;0.52;;
26864;SDS011;40618;51.166;10.322;2023-04-01T16:22:17;1.73;;;1.20;;
26864;SDS011;40618;51.166;10.322;2023-04-01T16:24:17;5.60;;;2.72;;
26864;SDS011;40618;51.166;10.322;2023-04-01T16:27:14;4.22;;;2.72;;
26864;SDS011;40618;51.166;10.322;2023-04-01T16:32:31;3.55;;;2.20;;
26864;SDS011;40618;51.166;10.322;2023-04-01T16:35:15;5.35;;;2.83;;
26864;SDS011;40618;51.166;10.322;2023-04-01T16:38:18;2.83;;;1.95;;
26864;SDS011;40618;51.166;10.322;2023-04-01T16:41:11;5.07;;;3.15;;
26864;SDS011;40618;51.166;10.322;2023-04-01T16:43:51;5.43;;;3.95;;
26864;SDS011;40618;51.166;10.322;2023-04-01T16:54:28;10.80;;;5.28;;
26864;SDS011;40618;51.166;10.322;2023-04-01T16:59:43;6.13;;;3.28;;
26864;SDS011;40618;51.166;10.322;2023-04-01T17:02:24;11.52;;;4.15;;
26864;SDS011;40618;51.166;10.322;2023-04-01T17:05:05;5.40;;;2.50;;
26864;SDS011;40618;51.166;10.322;2023-04-01T17:36:57;7.63;;;4.03;;
26864;SDS011;40618;51.166;10.322;2023-04-01T17:42:21;4.50;;;3.38;;
26864;SDS011;40618;51.166;10.322;2023-04-01T17:44:59;4.60;;;3.63;;
26864;SDS011;40618;51.166;10.322;2023-04-01T17:48:03;1.40;;;1.30;;
26864;SDS011;40618;51.166;10.322;2023-04-01T17:53:47;1.27;;;0.80;;
26864;SDS011;40618;51.166;10.322;2023-04-01T17:56:45;2.40;;;1.50;;
26864;SDS011;40618;51.166;10.322;2023-04-01T18:03:09;0.68;;;0.68;;
26864;SDS011;40618;51.166;10.322;2023-04-01T18:11:58;0.60;;;0.60;;
26864;SDS011;40618;51.166;10.322;2023-04-01T18:14:47;0.60;;;0.60;;
26864;SDS011;40618;51.166;10.322;2023-04-01T18:17:27;0.40;;;0.40;;
26864;SDS011;40618;51.166;10.322;2023-04-01T18:23:30;1.05;;;0.68;;
26864;SDS011;40618;51.166;10.322;2023-04-01T18:26:24;0.75;;;0.73;;
26864;SDS011;40618;51.166;10.322;2023-04-01T18:28:58;1.45;;;1.23;;
26864;SDS011;40618;51.166;10.322;2023-04-01T18:32:14;1.80;;;1.60;;
26864;SDS011;40618;51.166;10.322;2023-04-01T18:35:15;4.72;;;2.05;;
26864;SDS011;40618;51.166;10.322;2023-04-01T18:40:36;6.50;;;4.32;;
26864;SDS011;40618;51.166;10.322;2023-04-01T18:49:29;8.77;;;3.50;;
26864;SDS011;40618;51.166;10.322;2023-04-01T18:57:59;4.53;;;2.10;;
26864;SDS011;40618;51.166;10.322;2023-04-01T19:00:43;4.30;;;2.60;;
26864;SDS011;40618;51.166;10.322;2023-04-01T19:03:21;5.13;;;3.03;;
26864;SDS011;40618;51.166;10.322;2023-04-01T19:05:56;2.60;;;1.80;;
26864;SDS011;40618;51.166;10.322;2023-04-01T19:08:33;3.92;;;2.53;;
26864;SDS011;40618;51.166;10.322;2023-04-01T19:25:54;3.30;;;2.13;;
26864;SDS011;40618;51.166;10.322;2023-04-01T19:34:02;4.85;;;3.40;;
26864;SDS011;40618;51.166;10.322;2023-04-01T19:37:05;4.00;;;2.58;;
26864;SDS011;40618;51.166;10.322;2023-04-01T19:48:34;2.03;;;1.30;;
26864;SDS011;40618;51.166;10.322;2023-04-01T19:57:19;1.38;;;0.90;;
26864;SDS011;40618;51.166;10.322;2023-04-01T20:00:01;1.23;;;0.88;;
26864;SDS011;40618;51.166;10.322;2023-04-01T20:08:58;1.10;;;1.00;;
26864;SDS011;40618;51.166;10.322;2023-04-01T20:14:33;1.05;;;0.85;;
26864;SDS011;40618;51.166;10.322;2023-04-01T20:17:23;1.17;;;0.50;;
26864;SDS011;40618;51.166;10.322;2023-04-01T20:19:59;0.50;;;0.40;;
26864;SDS011;40618;51.166;10.322;2023-04-01T20:22:55;1.55;;;1.25;;
26864;SDS011;40618;51.166;10.322;2023-04-01T20:25:25;2.08;;;1.80;;
26864;SDS011;40618;51.166;10.322;2023-04-01T20:28:00;3.15;;;1.95;;
26864;SDS011;40618;51.166;10.322;2023-04-01T20:35:46;5.18;;;3.28;;
26864;SDS011;40618;51.166;10.322;2023-04-01T20:41:20;3.72;;;1.40;;
26864;SDS011;40618;51.166;10.322;2023-04-01T20:49:27;1.20;;;0.60;;
26864;SDS011;40618;51.166;10.322;2023-04-01T20:57:19;0.50;;;0.40;;
26864;SDS011;40618;51.166;10.322;2023-04-01T21:00:08;0.80;;;0.35;;
26864;SDS011;40618;51.166;10.322;2023-04-01T21:03:18;0.60;;;0.50;;
26864;SDS011;40618;51.166;10.322;2023-04-01T21:08:44;0.32;;;0.32;;
26864;SDS011;40618;51.166;10.322;2023-04-01T21:14:35;0.85;;;0.80;;
26864;SDS011;40618;51.166;10.322;2023-04-01T22:01:34;3.88;;;2.25;;
26864;SDS011;40618;51.166;10.322;2023-04-01T22:07:17;2.63;;;1.67;;
26864;SDS011;40618;51.166;10.322;2023-04-01T22:09:59;2.90;;;2.20;;
26864;SDS011;40618;51.166;10.322;2023-04-01T22:12:52;2.10;;;1.17;;
26864;SDS011;40618;51.166;10.322;2023-04-01T22:19:10;0.90;;;0.70;;
26864;SDS011;40618;51.166;10.322;2023-04-01T22:22:02;0.50;;;0.50;;
26864;SDS011;40618;51.166;10.322;2023-04-01T22:33:11;0.22;;;0.22;;
26864;SDS011;40618;51.166;10.322;2023-04-01T22:52:51;0.60;;;0.60;;
26864;SDS011;40618;51.166;10.322;2023-04-01T22:55:33;0.95;;;0.68;;
26864;SDS011;40618;51.166;10.322;2023-04-01T22:58:08;0.60;;;0.52;;
26864;SDS011;40618;51.166;10.322;2023-04-01T23:00:48;0.60;;;0.60;;
26864;SDS011;40618;51.166;10.322;2023-04-01T23:03:21;0.60;;;0.60;;
26864;SDS011;40618;51.166;10.322;2023-04-01T23:05:58;2.25;;;0.85;;
26864;SDS011;40618;51.166;10.322;2023-04-01T23:16:46;0.63;;;0.60;;
26864;SDS011;40618;51.166;10.322;2023-04-01T23:19:45;0.50;;;0.50;;
26864;SDS011;40618;51.166;10.322;2023-04-01T23:22:43;0.57;;;0.57;;
26864;SDS011;40618;51.166;10.322;2023-04-01T23:38:21;0.40;;;0.40;;
26864;SDS011;40618;51.166;10.322;2023-04-01T23:40:51;0.50;;;0.50;;
26864;SDS011;40618;51.166;10.322;2023-04-01T23:43:26;0.90;;;0.68;;
26864;SDS011;40618;51.166;10.322;2023-04-01T23:45:57;0.60;;;0.60;;
26864;SDS011;40618;51.166;10.322;2023-04-01T23:48:38;0.50;;;0.50;;
26864;SDS011;40618;51.166;10.322;2023-04-01T23:51:10;0.95;;;0.80;;
26864;SDS011;40618;51.166;10.322;2023-04-01T23:53:45;0.75;;;0.75;;
26864;SDS011;40618;51.166;10.322;2023-04-01T23:56:20;0.85;;;0.60;;
26864;SDS011;40618;51.166;10.322;2023-04-01T23:58:50;0.65;;;0.65;;
